»·PEaware :: ASA720 KLAS-KSNA

ASA720 :: KLAS-KSNA

FLIGHT INFORMATION

Flight Status: Arrived
Operator:
Alaska Airlines
More flights by this operator :: More flights under this callsign
Pilot: Arnold Y. (19526)
Aircraft: BOEING 737-800
(B738)
More flights by this aircraft type
Origin: KLAS McCarran Intl
United States
Destination: KSNA John Wayne-Orange Co
United States
More flights between these airports :: More routes between these airports
Route: BOACH8 WHIGG FEYLA DSNEE4
File this flight plan on PilotEdge
Remarks:
Altitude:
(Current/Filed)
26,000ft
Speed:
(Current/Filed)
442kts
Departed: 31-Jul-20 12:39 PM
Arrived: 31-Jul-20 01:20 PM
Distance/Time
Traveled:
196nm/0:41
Distance/Time
To Go:
Arrived

Flight Plot

Page will automatically refresh every two minutes.


Map Options




Map Legend


Flown Route
Filed Route
Departure Airport
Arrival Airport
Navaid (VOR, NDB)
Fix

Horizontal Profiles

Position Reports

Time Latitude Longitude Heading Altitude Ground
Speed
31-Jul-20 12:15 36.079756 -115.140072 25 2189ft 0kts
31-Jul-20 12:16 36.079756 -115.140072 25 2189ft 0kts
31-Jul-20 12:17 36.079756 -115.140072 25 2189ft 0kts
31-Jul-20 12:18 36.079756 -115.140072 25 2189ft 0kts
31-Jul-20 12:19 36.079756 -115.140072 25 2189ft 0kts
31-Jul-20 12:20 36.079756 -115.140072 25 2189ft 0kts
31-Jul-20 12:21 36.079756 -115.140072 25 2189ft 0kts
31-Jul-20 12:22 36.079756 -115.140072 25 2189ft 0kts
31-Jul-20 12:23 36.079756 -115.140072 25 2189ft 0kts
31-Jul-20 12:24 36.079756 -115.140072 25 2189ft 0kts
31-Jul-20 12:25 36.079595 -115.140184 25 2189ft 2kts
31-Jul-20 12:26 36.079093 -115.140270 318 2189ft 2kts
31-Jul-20 12:27 36.078993 -115.139932 268 2189ft 0kts
31-Jul-20 12:28 36.078993 -115.139932 268 2189ft 0kts
31-Jul-20 12:29 36.078993 -115.139932 268 2189ft 0kts
31-Jul-20 12:30 36.078993 -115.139932 268 2189ft 0kts
31-Jul-20 12:31 36.078993 -115.139932 268 2189ft 0kts
31-Jul-20 12:32 36.078931 -115.140055 219 2189ft 4kts
31-Jul-20 12:33 36.078291 -115.136574 90 2189ft 14kts
31-Jul-20 12:34 36.078299 -115.131768 89 2189ft 16kts
31-Jul-20 12:35 36.078313 -115.126836 89 2189ft 17kts
31-Jul-20 12:36 36.078211 -115.122603 123 2189ft 4kts
31-Jul-20 12:37 36.076502 -115.121525 249 2189ft 7kts
31-Jul-20 12:38 36.076413 -115.150030 270 2404ft 195kts
31-Jul-20 12:39 36.072610 -115.227951 248 5049ft 267kts
31-Jul-20 12:40 36.001938 -115.289402 200 7022ft 275kts
31-Jul-20 12:41 35.925195 -115.308389 187 9843ft 287kts
31-Jul-20 12:42 35.843709 -115.313901 179 13188ft 303kts
31-Jul-20 12:43 35.756931 -115.303694 178 16238ft 319kts
31-Jul-20 12:44 35.668716 -115.319351 211 19041ft 324kts
31-Jul-20 12:45 35.602429 -115.396675 229 21654ft 334kts
31-Jul-20 12:46 35.538328 -115.483048 229 24021ft 346kts
31-Jul-20 12:47 35.471465 -115.572989 230 26055ft 361kts
31-Jul-20 12:48 35.404332 -115.663513 229 26076ft 379kts
31-Jul-20 12:49 35.328907 -115.764977 229 26073ft 409kts
31-Jul-20 12:50 35.249601 -115.871376 229 26071ft 421kts
31-Jul-20 12:51 35.168621 -115.975606 227 26072ft 420kts
31-Jul-20 12:52 35.086364 -116.078841 227 26073ft 420kts
31-Jul-20 12:53 35.004281 -116.181988 227 26077ft 422kts
31-Jul-20 12:54 34.920751 -116.286763 227 26077ft 429kts
31-Jul-20 12:55 34.838456 -116.390397 227 26050ft 418kts
31-Jul-20 12:56 34.759179 -116.491258 228 26055ft 412kts
31-Jul-20 12:57 34.678423 -116.588574 221 25550ft 395kts
31-Jul-20 12:58 34.597169 -116.668803 220 23398ft 383kts
31-Jul-20 12:59 34.514570 -116.749635 221 21211ft 371kts
31-Jul-20 13:00 34.439980 -116.834196 224 19079ft 359kts
31-Jul-20 13:01 34.368329 -116.917351 224 16961ft 349kts
31-Jul-20 13:02 34.299140 -116.997165 224 14944ft 337kts
31-Jul-20 13:03 34.224635 -117.064420 211 14024ft 336kts
31-Jul-20 13:04 34.144443 -117.117265 205 13035ft 326kts
31-Jul-20 13:05 34.059968 -117.162257 205 13026ft 327kts
31-Jul-20 13:06 33.983673 -117.215283 224 11469ft 312kts
31-Jul-20 13:07 33.927739 -117.292327 229 10240ft 281kts
31-Jul-20 13:08 33.881060 -117.358538 230 9208ft 259kts
31-Jul-20 13:09 33.834466 -117.424346 230 8204ft 246kts
31-Jul-20 13:10 33.815600 -117.497559 280 7561ft 250kts
31-Jul-20 13:11 33.831633 -117.577718 281 5973ft 241kts
31-Jul-20 13:12 33.846670 -117.653710 281 5017ft 211kts
31-Jul-20 13:13 33.858797 -117.720959 269 3944ft 189kts
31-Jul-20 13:14 33.826798 -117.765633 221 3058ft 173kts
31-Jul-20 13:15 33.790956 -117.795510 210 2514ft 137kts
31-Jul-20 13:16 33.757188 -117.817170 208 1763ft 134kts
31-Jul-20 13:17 33.723960 -117.838290 207 963ft 135kts
31-Jul-20 13:18 33.691186 -117.859034 207 296ft 133kts
31-Jul-20 13:19 33.670758 -117.871961 207 66ft 12kts
31-Jul-20 13:20 33.669118 -117.871607 125 66ft 2kts
31-Jul-20 13:21 33.670887 -117.869070 40 66ft 13kts
31-Jul-20 13:22 33.674146 -117.866426 27 66ft 14kts
31-Jul-20 13:23 33.677506 -117.864294 27 66ft 13kts
31-Jul-20 13:24 33.679221 -117.862925 118 66ft 2kts
31-Jul-20 13:26 33.679053 -117.862549 117 66ft 0kts

Navigation Log

Ident Type
Flight plan parsing failed, navigation log unavailable